San Miguel, California
Current Conditions -  °F | °C
As of 3:53 PM on Friday 19 Dec 2014 (Local Time) from KPRB Reporting Station
Overcast Overcast  
Wind Chill: 58°   Ceiling: 6000
Heat Index: 58°   Visibility: 10mi
Dew Point: 50°   Wind: 5mph
Humidity: 75%   Direction: 10°N
Pressure: 30.18"   Gusts: NA
Location:  35.75°N, 120.7°W
Report Text: KPRB 192353Z AUTO 01004KT 10SM OVC060 14/10 A3018 RMK AO2 SLP219 T01440100 10150 20106 53001 TSNO
Loading
Personal Weather Stations






























Interactive Weather Map New forecast layout! Learn more

10-Day Weather Forecast

Advertisements
Track Severe Weather on mobile